sensor_id;sensor_type;location;lat;lon;timestamp;P1;durP1;ratioP1;P2;durP2;ratioP2
19221;SDS011;9745;50.828;4.378;2023-02-13T00:00:58;79.97;;;34.60;;
19221;SDS011;9745;50.828;4.378;2023-02-13T00:03:24;85.00;;;37.33;;
19221;SDS011;9745;50.828;4.378;2023-02-13T00:05:50;93.63;;;37.20;;
19221;SDS011;9745;50.828;4.378;2023-02-13T00:08:16;83.30;;;35.77;;
19221;SDS011;9745;50.828;4.378;2023-02-13T00:10:42;86.73;;;36.47;;
19221;SDS011;9745;50.828;4.378;2023-02-13T00:13:08;91.43;;;35.70;;
19221;SDS011;9745;50.828;4.378;2023-02-13T00:15:34;100.97;;;37.77;;
19221;SDS011;9745;50.828;4.378;2023-02-13T00:18:01;88.03;;;37.80;;
19221;SDS011;9745;50.828;4.378;2023-02-13T00:20:27;89.27;;;35.27;;
19221;SDS011;9745;50.828;4.378;2023-02-13T00:22:53;93.33;;;37.83;;
19221;SDS011;9745;50.828;4.378;2023-02-13T00:25:19;92.47;;;37.57;;
19221;SDS011;9745;50.828;4.378;2023-02-13T00:27:45;91.50;;;36.93;;
19221;SDS011;9745;50.828;4.378;2023-02-13T00:30:11;86.13;;;36.80;;
19221;SDS011;9745;50.828;4.378;2023-02-13T00:32:37;81.17;;;35.40;;
19221;SDS011;9745;50.828;4.378;2023-02-13T00:35:03;98.57;;;38.70;;
19221;SDS011;9745;50.828;4.378;2023-02-13T00:37:29;85.17;;;36.07;;
19221;SDS011;9745;50.828;4.378;2023-02-13T00:39:55;83.03;;;35.13;;
19221;SDS011;9745;50.828;4.378;2023-02-13T00:42:21;83.10;;;35.73;;
19221;SDS011;9745;50.828;4.378;2023-02-13T00:44:50;90.33;;;35.27;;
19221;SDS011;9745;50.828;4.378;2023-02-13T00:47:16;82.57;;;35.53;;
19221;SDS011;9745;50.828;4.378;2023-02-13T00:49:42;83.53;;;34.07;;
19221;SDS011;9745;50.828;4.378;2023-02-13T00:52:08;85.83;;;36.53;;
19221;SDS011;9745;50.828;4.378;2023-02-13T00:54:34;85.13;;;35.27;;
19221;SDS011;9745;50.828;4.378;2023-02-13T00:57:00;91.27;;;35.93;;
19221;SDS011;9745;50.828;4.378;2023-02-13T00:59:26;89.83;;;35.33;;
19221;SDS011;9745;50.828;4.378;2023-02-13T01:01:52;92.83;;;35.70;;
19221;SDS011;9745;50.828;4.378;2023-02-13T01:04:18;89.23;;;36.20;;
19221;SDS011;9745;50.828;4.378;2023-02-13T01:06:44;86.73;;;35.40;;
19221;SDS011;9745;50.828;4.378;2023-02-13T01:09:10;74.27;;;33.10;;
19221;SDS011;9745;50.828;4.378;2023-02-13T01:11:36;85.47;;;35.13;;
19221;SDS011;9745;50.828;4.378;2023-02-13T01:14:02;79.90;;;32.90;;
19221;SDS011;9745;50.828;4.378;2023-02-13T01:16:29;83.33;;;35.23;;
19221;SDS011;9745;50.828;4.378;2023-02-13T01:18:55;87.27;;;35.90;;
19221;SDS011;9745;50.828;4.378;2023-02-13T01:21:21;82.13;;;35.47;;
19221;SDS011;9745;50.828;4.378;2023-02-13T01:23:48;88.73;;;37.93;;
19221;SDS011;9745;50.828;4.378;2023-02-13T01:26:18;84.13;;;34.93;;
19221;SDS011;9745;50.828;4.378;2023-02-13T01:28:44;94.73;;;36.53;;
19221;SDS011;9745;50.828;4.378;2023-02-13T01:31:10;87.10;;;34.60;;
19221;SDS011;9745;50.828;4.378;2023-02-13T01:33:37;83.00;;;35.90;;
19221;SDS011;9745;50.828;4.378;2023-02-13T01:36:06;85.43;;;35.90;;
19221;SDS011;9745;50.828;4.378;2023-02-13T01:38:32;88.03;;;34.77;;
19221;SDS011;9745;50.828;4.378;2023-02-13T01:40:58;95.27;;;36.43;;
19221;SDS011;9745;50.828;4.378;2023-02-13T01:43:29;84.73;;;35.43;;
19221;SDS011;9745;50.828;4.378;2023-02-13T01:46:07;85.43;;;34.10;;
19221;SDS011;9745;50.828;4.378;2023-02-13T01:48:33;94.90;;;35.23;;
19221;SDS011;9745;50.828;4.378;2023-02-13T01:51:02;87.73;;;35.90;;
19221;SDS011;9745;50.828;4.378;2023-02-13T01:53:37;89.23;;;35.87;;
19221;SDS011;9745;50.828;4.378;2023-02-13T01:58:37;86.10;;;36.40;;
19221;SDS011;9745;50.828;4.378;2023-02-13T02:01:05;85.10;;;35.23;;
19221;SDS011;9745;50.828;4.378;2023-02-13T02:05:58;81.73;;;35.20;;
19221;SDS011;9745;50.828;4.378;2023-02-13T02:08:24;85.77;;;36.97;;
19221;SDS011;9745;50.828;4.378;2023-02-13T02:10:51;88.10;;;34.83;;
19221;SDS011;9745;50.828;4.378;2023-02-13T02:13:19;83.37;;;33.50;;
19221;SDS011;9745;50.828;4.378;2023-02-13T02:15:46;88.23;;;35.43;;
19221;SDS011;9745;50.828;4.378;2023-02-13T02:18:16;85.93;;;35.07;;
19221;SDS011;9745;50.828;4.378;2023-02-13T02:28:44;75.23;;;32.70;;
19221;SDS011;9745;50.828;4.378;2023-02-13T02:31:17;77.87;;;33.07;;
19221;SDS011;9745;50.828;4.378;2023-02-13T02:34:12;83.37;;;33.87;;
19221;SDS011;9745;50.828;4.378;2023-02-13T02:39:28;88.00;;;35.93;;
19221;SDS011;9745;50.828;4.378;2023-02-13T02:44:31;86.90;;;34.20;;
19221;SDS011;9745;50.828;4.378;2023-02-13T02:49:50;83.63;;;35.53;;
19221;SDS011;9745;50.828;4.378;2023-02-13T02:57:52;83.37;;;34.57;;
19221;SDS011;9745;50.828;4.378;2023-02-13T03:00:39;84.63;;;33.07;;
19221;SDS011;9745;50.828;4.378;2023-02-13T03:03:42;85.50;;;34.60;;
19221;SDS011;9745;50.828;4.378;2023-02-13T03:08:53;93.10;;;37.83;;
19221;SDS011;9745;50.828;4.378;2023-02-13T03:11:39;90.07;;;35.17;;
19221;SDS011;9745;50.828;4.378;2023-02-13T03:14:26;82.17;;;34.53;;
19221;SDS011;9745;50.828;4.378;2023-02-13T03:16:53;79.57;;;35.03;;
19221;SDS011;9745;50.828;4.378;2023-02-13T03:22:32;76.43;;;31.70;;
19221;SDS011;9745;50.828;4.378;2023-02-13T03:27:49;74.73;;;30.60;;
19221;SDS011;9745;50.828;4.378;2023-02-13T03:33:14;69.00;;;29.73;;
19221;SDS011;9745;50.828;4.378;2023-02-13T03:35:48;68.20;;;29.60;;
19221;SDS011;9745;50.828;4.378;2023-02-13T03:38:41;65.73;;;29.17;;
19221;SDS011;9745;50.828;4.378;2023-02-13T03:41:12;71.17;;;30.57;;
19221;SDS011;9745;50.828;4.378;2023-02-13T03:43:55;67.60;;;29.63;;
19221;SDS011;9745;50.828;4.378;2023-02-13T03:46:23;66.63;;;28.60;;
19221;SDS011;9745;50.828;4.378;2023-02-13T03:48:50;69.80;;;31.00;;
19221;SDS011;9745;50.828;4.378;2023-02-13T03:51:40;68.77;;;29.60;;
19221;SDS011;9745;50.828;4.378;2023-02-13T03:54:11;65.83;;;29.77;;
19221;SDS011;9745;50.828;4.378;2023-02-13T03:56:41;63.10;;;27.30;;
19221;SDS011;9745;50.828;4.378;2023-02-13T03:59:31;68.03;;;28.90;;
19221;SDS011;9745;50.828;4.378;2023-02-13T04:05:12;62.87;;;26.43;;
19221;SDS011;9745;50.828;4.378;2023-02-13T04:07:17;63.90;;;26.67;;
19221;SDS011;9745;50.828;4.378;2023-02-13T04:09:54;58.93;;;26.27;;
19221;SDS011;9745;50.828;4.378;2023-02-13T04:12:24;52.33;;;26.20;;
19221;SDS011;9745;50.828;4.378;2023-02-13T04:14:53;51.67;;;24.63;;
19221;SDS011;9745;50.828;4.378;2023-02-13T04:17:23;57.47;;;24.33;;
19221;SDS011;9745;50.828;4.378;2023-02-13T04:19:50;52.37;;;25.83;;
19221;SDS011;9745;50.828;4.378;2023-02-13T04:22:16;49.07;;;24.20;;
19221;SDS011;9745;50.828;4.378;2023-02-13T04:24:42;59.77;;;24.43;;
19221;SDS011;9745;50.828;4.378;2023-02-13T04:27:09;52.60;;;25.37;;
19221;SDS011;9745;50.828;4.378;2023-02-13T04:29:38;53.33;;;24.97;;
19221;SDS011;9745;50.828;4.378;2023-02-13T04:34:37;50.90;;;24.57;;
19221;SDS011;9745;50.828;4.378;2023-02-13T04:37:03;49.30;;;23.37;;
19221;SDS011;9745;50.828;4.378;2023-02-13T04:39:29;53.53;;;24.70;;
19221;SDS011;9745;50.828;4.378;2023-02-13T04:41:55;56.30;;;25.43;;
19221;SDS011;9745;50.828;4.378;2023-02-13T04:44:21;52.07;;;25.23;;
19221;SDS011;9745;50.828;4.378;2023-02-13T04:46:47;58.53;;;26.27;;
19221;SDS011;9745;50.828;4.378;2023-02-13T04:49:13;52.90;;;23.80;;
19221;SDS011;9745;50.828;4.378;2023-02-13T04:51:39;56.27;;;25.00;;
19221;SDS011;9745;50.828;4.378;2023-02-13T04:54:05;52.87;;;25.37;;
19221;SDS011;9745;50.828;4.378;2023-02-13T04:56:31;54.37;;;23.27;;
19221;SDS011;9745;50.828;4.378;2023-02-13T04:58:57;51.50;;;23.03;;
19221;SDS011;9745;50.828;4.378;2023-02-13T05:01:23;53.80;;;24.03;;
19221;SDS011;9745;50.828;4.378;2023-02-13T05:03:50;49.20;;;22.07;;
19221;SDS011;9745;50.828;4.378;2023-02-13T05:06:16;50.27;;;23.63;;
19221;SDS011;9745;50.828;4.378;2023-02-13T05:08:42;53.30;;;23.00;;
19221;SDS011;9745;50.828;4.378;2023-02-13T05:11:08;49.83;;;22.37;;
19221;SDS011;9745;50.828;4.378;2023-02-13T05:13:34;48.33;;;20.97;;
19221;SDS011;9745;50.828;4.378;2023-02-13T05:16:00;42.23;;;19.90;;
19221;SDS011;9745;50.828;4.378;2023-02-13T05:18:26;43.63;;;21.10;;
19221;SDS011;9745;50.828;4.378;2023-02-13T05:20:52;43.30;;;20.40;;
19221;SDS011;9745;50.828;4.378;2023-02-13T05:23:37;42.23;;;19.20;;
19221;SDS011;9745;50.828;4.378;2023-02-13T05:26:03;48.07;;;20.50;;
19221;SDS011;9745;50.828;4.378;2023-02-13T05:28:29;37.37;;;19.27;;
19221;SDS011;9745;50.828;4.378;2023-02-13T05:31:13;40.57;;;18.90;;
19221;SDS011;9745;50.828;4.378;2023-02-13T05:33:39;41.07;;;20.47;;
19221;SDS011;9745;50.828;4.378;2023-02-13T05:36:05;41.13;;;19.53;;
19221;SDS011;9745;50.828;4.378;2023-02-13T05:38:32;45.00;;;20.70;;
19221;SDS011;9745;50.828;4.378;2023-02-13T05:40:58;44.57;;;19.07;;
19221;SDS011;9745;50.828;4.378;2023-02-13T05:43:24;40.53;;;19.93;;
19221;SDS011;9745;50.828;4.378;2023-02-13T05:45:50;40.97;;;20.63;;
19221;SDS011;9745;50.828;4.378;2023-02-13T05:48:16;40.90;;;19.20;;
19221;SDS011;9745;50.828;4.378;2023-02-13T05:50:44;36.03;;;18.47;;
19221;SDS011;9745;50.828;4.378;2023-02-13T05:53:11;42.27;;;18.93;;
19221;SDS011;9745;50.828;4.378;2023-02-13T05:55:37;41.60;;;19.33;;
19221;SDS011;9745;50.828;4.378;2023-02-13T05:58:04;44.23;;;19.73;;
19221;SDS011;9745;50.828;4.378;2023-02-13T06:00:30;37.67;;;18.53;;
19221;SDS011;9745;50.828;4.378;2023-02-13T06:02:56;37.43;;;18.20;;
19221;SDS011;9745;50.828;4.378;2023-02-13T06:05:22;36.40;;;18.37;;
19221;SDS011;9745;50.828;4.378;2023-02-13T06:07:47;34.30;;;17.80;;
19221;SDS011;9745;50.828;4.378;2023-02-13T06:10:14;45.30;;;20.60;;
19221;SDS011;9745;50.828;4.378;2023-02-13T06:12:41;40.07;;;18.77;;
19221;SDS011;9745;50.828;4.378;2023-02-13T06:15:07;40.47;;;18.03;;
19221;SDS011;9745;50.828;4.378;2023-02-13T06:17:33;38.80;;;17.37;;
19221;SDS011;9745;50.828;4.378;2023-02-13T06:19:59;39.20;;;17.80;;
19221;SDS011;9745;50.828;4.378;2023-02-13T06:22:25;43.13;;;19.23;;
19221;SDS011;9745;50.828;4.378;2023-02-13T06:24:51;37.27;;;17.50;;
19221;SDS011;9745;50.828;4.378;2023-02-13T06:27:17;40.13;;;16.73;;
19221;SDS011;9745;50.828;4.378;2023-02-13T06:29:43;38.67;;;18.20;;
19221;SDS011;9745;50.828;4.378;2023-02-13T06:32:09;39.33;;;18.70;;
19221;SDS011;9745;50.828;4.378;2023-02-13T06:34:35;37.53;;;18.20;;
19221;SDS011;9745;50.828;4.378;2023-02-13T06:37:01;33.93;;;18.03;;
19221;SDS011;9745;50.828;4.378;2023-02-13T06:39:27;34.20;;;16.67;;
19221;SDS011;9745;50.828;4.378;2023-02-13T06:41:53;32.63;;;17.23;;
19221;SDS011;9745;50.828;4.378;2023-02-13T06:44:19;41.23;;;19.00;;
19221;SDS011;9745;50.828;4.378;2023-02-13T06:46:45;36.37;;;17.27;;
19221;SDS011;9745;50.828;4.378;2023-02-13T06:49:11;38.93;;;18.73;;
19221;SDS011;9745;50.828;4.378;2023-02-13T06:51:37;33.83;;;17.07;;
19221;SDS011;9745;50.828;4.378;2023-02-13T06:54:03;30.97;;;15.70;;
19221;SDS011;9745;50.828;4.378;2023-02-13T06:56:29;32.33;;;16.63;;
19221;SDS011;9745;50.828;4.378;2023-02-13T06:58:55;35.70;;;16.23;;
19221;SDS011;9745;50.828;4.378;2023-02-13T07:01:21;34.13;;;16.67;;
19221;SDS011;9745;50.828;4.378;2023-02-13T07:03:47;35.90;;;17.30;;
19221;SDS011;9745;50.828;4.378;2023-02-13T07:06:16;33.70;;;16.97;;
19221;SDS011;9745;50.828;4.378;2023-02-13T07:08:43;34.47;;;16.77;;
19221;SDS011;9745;50.828;4.378;2023-02-13T07:11:15;31.53;;;16.13;;
19221;SDS011;9745;50.828;4.378;2023-02-13T07:13:41;32.17;;;15.67;;
19221;SDS011;9745;50.828;4.378;2023-02-13T07:16:07;38.90;;;16.70;;
19221;SDS011;9745;50.828;4.378;2023-02-13T07:18:33;36.97;;;17.37;;
19221;SDS011;9745;50.828;4.378;2023-02-13T07:20:59;31.93;;;16.60;;
19221;SDS011;9745;50.828;4.378;2023-02-13T07:23:25;34.70;;;16.50;;
19221;SDS011;9745;50.828;4.378;2023-02-13T07:25:51;35.27;;;15.73;;
19221;SDS011;9745;50.828;4.378;2023-02-13T07:28:17;29.63;;;15.77;;
19221;SDS011;9745;50.828;4.378;2023-02-13T07:30:43;32.00;;;15.70;;
19221;SDS011;9745;50.828;4.378;2023-02-13T07:33:09;36.37;;;16.97;;
19221;SDS011;9745;50.828;4.378;2023-02-13T07:35:35;34.10;;;16.13;;
19221;SDS011;9745;50.828;4.378;2023-02-13T07:38:02;33.37;;;15.50;;
19221;SDS011;9745;50.828;4.378;2023-02-13T07:40:27;28.83;;;16.10;;
19221;SDS011;9745;50.828;4.378;2023-02-13T07:42:54;31.40;;;16.30;;
19221;SDS011;9745;50.828;4.378;2023-02-13T07:45:20;43.63;;;17.27;;
19221;SDS011;9745;50.828;4.378;2023-02-13T07:47:46;30.87;;;15.87;;
19221;SDS011;9745;50.828;4.378;2023-02-13T07:50:12;39.17;;;16.37;;
19221;SDS011;9745;50.828;4.378;2023-02-13T07:52:38;32.33;;;15.37;;
19221;SDS011;9745;50.828;4.378;2023-02-13T07:55:04;32.40;;;15.70;;
19221;SDS011;9745;50.828;4.378;2023-02-13T07:57:30;30.93;;;15.80;;
19221;SDS011;9745;50.828;4.378;2023-02-13T07:59:56;30.77;;;16.67;;
19221;SDS011;9745;50.828;4.378;2023-02-13T08:02:23;32.23;;;14.60;;
19221;SDS011;9745;50.828;4.378;2023-02-13T08:04:48;38.97;;;16.63;;
19221;SDS011;9745;50.828;4.378;2023-02-13T08:07:15;32.73;;;15.20;;
19221;SDS011;9745;50.828;4.378;2023-02-13T08:09:45;36.33;;;15.90;;
19221;SDS011;9745;50.828;4.378;2023-02-13T08:12:30;40.77;;;17.60;;
19221;SDS011;9745;50.828;4.378;2023-02-13T08:14:56;29.70;;;14.80;;
19221;SDS011;9745;50.828;4.378;2023-02-13T08:19:52;36.87;;;16.77;;
19221;SDS011;9745;50.828;4.378;2023-02-13T08:22:19;31.77;;;16.67;;
19221;SDS011;9745;50.828;4.378;2023-02-13T08:24:45;33.63;;;15.83;;
19221;SDS011;9745;50.828;4.378;2023-02-13T08:27:11;31.43;;;14.97;;
19221;SDS011;9745;50.828;4.378;2023-02-13T08:29:37;38.37;;;16.43;;
19221;SDS011;9745;50.828;4.378;2023-02-13T08:32:03;34.73;;;16.50;;
19221;SDS011;9745;50.828;4.378;2023-02-13T08:34:29;29.37;;;15.07;;
19221;SDS011;9745;50.828;4.378;2023-02-13T08:36:55;29.67;;;16.30;;
19221;SDS011;9745;50.828;4.378;2023-02-13T08:39:21;36.87;;;17.70;;
19221;SDS011;9745;50.828;4.378;2023-02-13T08:41:47;39.33;;;17.07;;
19221;SDS011;9745;50.828;4.378;2023-02-13T08:44:13;34.30;;;16.67;;
19221;SDS011;9745;50.828;4.378;2023-02-13T08:46:39;35.07;;;16.40;;
19221;SDS011;9745;50.828;4.378;2023-02-13T08:49:05;36.67;;;17.33;;
19221;SDS011;9745;50.828;4.378;2023-02-13T08:51:31;38.57;;;17.83;;
19221;SDS011;9745;50.828;4.378;2023-02-13T08:53:57;38.43;;;17.50;;
19221;SDS011;9745;50.828;4.378;2023-02-13T08:56:23;35.33;;;17.00;;
19221;SDS011;9745;50.828;4.378;2023-02-13T08:58:49;34.43;;;18.13;;
19221;SDS011;9745;50.828;4.378;2023-02-13T09:01:15;35.90;;;17.37;;
19221;SDS011;9745;50.828;4.378;2023-02-13T09:03:41;31.10;;;16.33;;
19221;SDS011;9745;50.828;4.378;2023-02-13T09:06:07;31.00;;;15.87;;
19221;SDS011;9745;50.828;4.378;2023-02-13T09:08:34;27.77;;;15.50;;
19221;SDS011;9745;50.828;4.378;2023-02-13T09:11:01;30.40;;;16.80;;
19221;SDS011;9745;50.828;4.378;2023-02-13T09:13:29;31.00;;;16.30;;
19221;SDS011;9745;50.828;4.378;2023-02-13T09:15:59;29.67;;;15.73;;
19221;SDS011;9745;50.828;4.378;2023-02-13T09:18:26;36.37;;;15.47;;
19221;SDS011;9745;50.828;4.378;2023-02-13T09:21:05;30.27;;;16.50;;
19221;SDS011;9745;50.828;4.378;2023-02-13T09:23:32;29.30;;;16.73;;
19221;SDS011;9745;50.828;4.378;2023-02-13T09:26:03;30.63;;;17.03;;
19221;SDS011;9745;50.828;4.378;2023-02-13T09:28:29;39.63;;;17.70;;
19221;SDS011;9745;50.828;4.378;2023-02-13T09:30:55;31.27;;;16.70;;
19221;SDS011;9745;50.828;4.378;2023-02-13T09:33:22;28.53;;;15.37;;
19221;SDS011;9745;50.828;4.378;2023-02-13T09:35:49;27.37;;;15.47;;
19221;SDS011;9745;50.828;4.378;2023-02-13T09:38:15;31.37;;;16.00;;
19221;SDS011;9745;50.828;4.378;2023-02-13T09:40:46;29.50;;;14.97;;
19221;SDS011;9745;50.828;4.378;2023-02-13T09:45:45;26.60;;;15.53;;
19221;SDS011;9745;50.828;4.378;2023-02-13T09:48:28;29.83;;;14.97;;
19221;SDS011;9745;50.828;4.378;2023-02-13T09:50:55;29.70;;;16.00;;
19221;SDS011;9745;50.828;4.378;2023-02-13T09:53:21;30.50;;;16.67;;
19221;SDS011;9745;50.828;4.378;2023-02-13T09:55:54;28.27;;;16.17;;
19221;SDS011;9745;50.828;4.378;2023-02-13T09:58:38;35.17;;;16.13;;
19221;SDS011;9745;50.828;4.378;2023-02-13T10:01:05;28.97;;;15.97;;
19221;SDS011;9745;50.828;4.378;2023-02-13T10:03:42;22.10;;;13.33;;
19221;SDS011;9745;50.828;4.378;2023-02-13T10:06:21;27.77;;;14.17;;
19221;SDS011;9745;50.828;4.378;2023-02-13T10:08:54;25.43;;;14.20;;
19221;SDS011;9745;50.828;4.378;2023-02-13T10:14:18;26.30;;;13.90;;
19221;SDS011;9745;50.828;4.378;2023-02-13T10:17:08;25.77;;;14.40;;
19221;SDS011;9745;50.828;4.378;2023-02-13T10:19:43;24.00;;;13.57;;
19221;SDS011;9745;50.828;4.378;2023-02-13T10:22:11;27.37;;;13.93;;
19221;SDS011;9745;50.828;4.378;2023-02-13T10:24:40;25.03;;;13.73;;
19221;SDS011;9745;50.828;4.378;2023-02-13T10:27:21;23.83;;;13.83;;
19221;SDS011;9745;50.828;4.378;2023-02-13T10:29:49;19.97;;;11.83;;
19221;SDS011;9745;50.828;4.378;2023-02-13T10:35:20;21.50;;;12.63;;
19221;SDS011;9745;50.828;4.378;2023-02-13T10:37:47;24.23;;;13.50;;
19221;SDS011;9745;50.828;4.378;2023-02-13T10:40:15;25.73;;;12.50;;
19221;SDS011;9745;50.828;4.378;2023-02-13T10:42:54;22.57;;;12.67;;
19221;SDS011;9745;50.828;4.378;2023-02-13T10:45:37;26.33;;;12.83;;
19221;SDS011;9745;50.828;4.378;2023-02-13T10:50:57;21.97;;;11.73;;
19221;SDS011;9745;50.828;4.378;2023-02-13T10:53:35;19.23;;;11.20;;
19221;SDS011;9745;50.828;4.378;2023-02-13T10:56:10;16.80;;;10.50;;
19221;SDS011;9745;50.828;4.378;2023-02-13T11:03:35;18.70;;;10.80;;
19221;SDS011;9745;50.828;4.378;2023-02-13T11:06:04;19.27;;;10.43;;
19221;SDS011;9745;50.828;4.378;2023-02-13T11:08:34;18.93;;;10.53;;
19221;SDS011;9745;50.828;4.378;2023-02-13T11:11:03;19.57;;;10.23;;
19221;SDS011;9745;50.828;4.378;2023-02-13T11:13:29;16.13;;;10.17;;
19221;SDS011;9745;50.828;4.378;2023-02-13T11:18:21;17.43;;;10.33;;
19221;SDS011;9745;50.828;4.378;2023-02-13T11:20:48;18.03;;;10.60;;
19221;SDS011;9745;50.828;4.378;2023-02-13T11:25:56;18.00;;;10.83;;
19221;SDS011;9745;50.828;4.378;2023-02-13T11:28:22;19.70;;;10.60;;
19221;SDS011;9745;50.828;4.378;2023-02-13T11:30:48;18.60;;;10.53;;
19221;SDS011;9745;50.828;4.378;2023-02-13T11:35:43;17.07;;;10.63;;
19221;SDS011;9745;50.828;4.378;2023-02-13T11:40:45;17.20;;;9.67;;
19221;SDS011;9745;50.828;4.378;2023-02-13T11:43:46;16.70;;;10.03;;
19221;SDS011;9745;50.828;4.378;2023-02-13T11:46:16;18.77;;;10.57;;
19221;SDS011;9745;50.828;4.378;2023-02-13T11:48:43;23.20;;;10.33;;
19221;SDS011;9745;50.828;4.378;2023-02-13T11:51:20;21.10;;;10.93;;
19221;SDS011;9745;50.828;4.378;2023-02-13T11:53:59;19.40;;;10.43;;
19221;SDS011;9745;50.828;4.378;2023-02-13T11:56:25;18.43;;;10.50;;
19221;SDS011;9745;50.828;4.378;2023-02-13T11:58:59;17.30;;;10.00;;
19221;SDS011;9745;50.828;4.378;2023-02-13T12:01:26;17.70;;;9.77;;
19221;SDS011;9745;50.828;4.378;2023-02-13T12:06:31;16.97;;;9.23;;
19221;SDS011;9745;50.828;4.378;2023-02-13T12:09:04;14.97;;;9.70;;
19221;SDS011;9745;50.828;4.378;2023-02-13T12:11:47;19.77;;;10.60;;
19221;SDS011;9745;50.828;4.378;2023-02-13T12:14:21;14.97;;;9.87;;
19221;SDS011;9745;50.828;4.378;2023-02-13T12:16:49;20.70;;;11.73;;
19221;SDS011;9745;50.828;4.378;2023-02-13T12:19:20;20.17;;;11.33;;
19221;SDS011;9745;50.828;4.378;2023-02-13T12:29:47;17.07;;;9.40;;
19221;SDS011;9745;50.828;4.378;2023-02-13T12:32:18;24.17;;;9.80;;
19221;SDS011;9745;50.828;4.378;2023-02-13T12:39:47;14.23;;;9.37;;
19221;SDS011;9745;50.828;4.378;2023-02-13T12:42:22;15.27;;;10.03;;
19221;SDS011;9745;50.828;4.378;2023-02-13T12:50:22;17.93;;;10.43;;
19221;SDS011;9745;50.828;4.378;2023-02-13T12:52:56;21.13;;;11.27;;
19221;SDS011;9745;50.828;4.378;2023-02-13T12:55:36;16.57;;;9.67;;
19221;SDS011;9745;50.828;4.378;2023-02-13T13:06:00;13.83;;;8.30;;
19221;SDS011;9745;50.828;4.378;2023-02-13T13:14:16;15.13;;;9.30;;
19221;SDS011;9745;50.828;4.378;2023-02-13T13:19:15;20.90;;;11.17;;
19221;SDS011;9745;50.828;4.378;2023-02-13T13:24:22;18.17;;;10.07;;
19221;SDS011;9745;50.828;4.378;2023-02-13T13:26:50;16.57;;;9.87;;
19221;SDS011;9745;50.828;4.378;2023-02-13T13:32:06;17.83;;;9.80;;
19221;SDS011;9745;50.828;4.378;2023-02-13T13:34:33;16.03;;;10.23;;
19221;SDS011;9745;50.828;4.378;2023-02-13T13:37:07;17.10;;;10.03;;
19221;SDS011;9745;50.828;4.378;2023-02-13T13:39:42;15.47;;;9.90;;
19221;SDS011;9745;50.828;4.378;2023-02-13T13:42:13;17.10;;;9.77;;
19221;SDS011;9745;50.828;4.378;2023-02-13T13:45:01;15.63;;;9.83;;
19221;SDS011;9745;50.828;4.378;2023-02-13T13:47:46;23.37;;;13.53;;
19221;SDS011;9745;50.828;4.378;2023-02-13T13:50:22;16.83;;;10.30;;
19221;SDS011;9745;50.828;4.378;2023-02-13T13:58:31;15.73;;;10.40;;
19221;SDS011;9745;50.828;4.378;2023-02-13T14:03:40;17.53;;;10.40;;
19221;SDS011;9745;50.828;4.378;2023-02-13T14:06:09;17.27;;;10.43;;
19221;SDS011;9745;50.828;4.378;2023-02-13T14:13:53;16.27;;;8.73;;
19221;SDS011;9745;50.828;4.378;2023-02-13T14:19:04;19.00;;;9.80;;
19221;SDS011;9745;50.828;4.378;2023-02-13T14:21:30;15.67;;;9.63;;
19221;SDS011;9745;50.828;4.378;2023-02-13T14:23:57;13.50;;;8.60;;
19221;SDS011;9745;50.828;4.378;2023-02-13T14:26:34;16.33;;;8.27;;
19221;SDS011;9745;50.828;4.378;2023-02-13T14:31:39;15.37;;;9.23;;
19221;SDS011;9745;50.828;4.378;2023-02-13T14:34:08;16.13;;;9.13;;
19221;SDS011;9745;50.828;4.378;2023-02-13T14:36:43;13.37;;;7.93;;
19221;SDS011;9745;50.828;4.378;2023-02-13T14:41:43;14.33;;;8.73;;
19221;SDS011;9745;50.828;4.378;2023-02-13T14:44:15;14.33;;;8.33;;
19221;SDS011;9745;50.828;4.378;2023-02-13T14:46:42;17.57;;;8.33;;
19221;SDS011;9745;50.828;4.378;2023-02-13T14:49:18;11.83;;;7.63;;
19221;SDS011;9745;50.828;4.378;2023-02-13T14:51:55;14.20;;;7.70;;
19221;SDS011;9745;50.828;4.378;2023-02-13T14:54:26;17.83;;;9.50;;
19221;SDS011;9745;50.828;4.378;2023-02-13T14:56:58;11.37;;;7.87;;
19221;SDS011;9745;50.828;4.378;2023-02-13T14:59:25;12.87;;;7.53;;
19221;SDS011;9745;50.828;4.378;2023-02-13T15:01:58;12.97;;;8.70;;
19221;SDS011;9745;50.828;4.378;2023-02-13T15:04:33;11.87;;;7.53;;
19221;SDS011;9745;50.828;4.378;2023-02-13T15:07:01;14.30;;;8.07;;
19221;SDS011;9745;50.828;4.378;2023-02-13T15:09:33;12.63;;;7.47;;
19221;SDS011;9745;50.828;4.378;2023-02-13T15:12:00;9.63;;;6.47;;
19221;SDS011;9745;50.828;4.378;2023-02-13T15:14:33;12.10;;;7.33;;
19221;SDS011;9745;50.828;4.378;2023-02-13T15:17:06;12.73;;;7.30;;
19221;SDS011;9745;50.828;4.378;2023-02-13T15:19:34;12.47;;;7.67;;
19221;SDS011;9745;50.828;4.378;2023-02-13T15:22:02;13.27;;;7.67;;
19221;SDS011;9745;50.828;4.378;2023-02-13T15:24:31;13.90;;;7.40;;
19221;SDS011;9745;50.828;4.378;2023-02-13T15:27:03;11.87;;;7.20;;
19221;SDS011;9745;50.828;4.378;2023-02-13T15:29:30;12.57;;;7.73;;
19221;SDS011;9745;50.828;4.378;2023-02-13T15:31:56;13.53;;;7.70;;
19221;SDS011;9745;50.828;4.378;2023-02-13T15:34:24;12.67;;;7.73;;
19221;SDS011;9745;50.828;4.378;2023-02-13T15:36:50;11.93;;;6.60;;
19221;SDS011;9745;50.828;4.378;2023-02-13T15:39:18;13.63;;;8.03;;
19221;SDS011;9745;50.828;4.378;2023-02-13T15:41:45;12.10;;;6.90;;
19221;SDS011;9745;50.828;4.378;2023-02-13T15:44:18;12.63;;;7.17;;
19221;SDS011;9745;50.828;4.378;2023-02-13T15:46:45;11.77;;;9.03;;
19221;SDS011;9745;50.828;4.378;2023-02-13T15:49:15;13.07;;;7.80;;
19221;SDS011;9745;50.828;4.378;2023-02-13T15:51:42;10.53;;;6.60;;
19221;SDS011;9745;50.828;4.378;2023-02-13T15:54:21;11.17;;;6.80;;
19221;SDS011;9745;50.828;4.378;2023-02-13T15:56:48;10.60;;;6.90;;
19221;SDS011;9745;50.828;4.378;2023-02-13T15:59:15;10.20;;;6.33;;
19221;SDS011;9745;50.828;4.378;2023-02-13T16:01:41;13.80;;;7.37;;
19221;SDS011;9745;50.828;4.378;2023-02-13T16:04:14;10.90;;;6.67;;
19221;SDS011;9745;50.828;4.378;2023-02-13T16:06:41;11.20;;;6.43;;
19221;SDS011;9745;50.828;4.378;2023-02-13T16:09:20;12.13;;;7.70;;
19221;SDS011;9745;50.828;4.378;2023-02-13T16:11:47;11.97;;;6.97;;
19221;SDS011;9745;50.828;4.378;2023-02-13T16:17:01;9.57;;;6.73;;
19221;SDS011;9745;50.828;4.378;2023-02-13T16:19:28;14.77;;;7.60;;
19221;SDS011;9745;50.828;4.378;2023-02-13T16:21:57;10.90;;;7.00;;
19221;SDS011;9745;50.828;4.378;2023-02-13T16:24:24;11.57;;;6.73;;
19221;SDS011;9745;50.828;4.378;2023-02-13T16:26:51;12.90;;;7.43;;
19221;SDS011;9745;50.828;4.378;2023-02-13T16:29:21;9.67;;;7.77;;
19221;SDS011;9745;50.828;4.378;2023-02-13T16:31:48;13.30;;;9.33;;
19221;SDS011;9745;50.828;4.378;2023-02-13T16:36:40;15.80;;;10.60;;
19221;SDS011;9745;50.828;4.378;2023-02-13T16:39:14;19.13;;;11.93;;
19221;SDS011;9745;50.828;4.378;2023-02-13T16:41:41;14.77;;;8.90;;
19221;SDS011;9745;50.828;4.378;2023-02-13T16:44:20;19.03;;;12.27;;
19221;SDS011;9745;50.828;4.378;2023-02-13T16:46:48;18.30;;;11.37;;
19221;SDS011;9745;50.828;4.378;2023-02-13T16:49:16;12.73;;;7.30;;
19221;SDS011;9745;50.828;4.378;2023-02-13T17:07:36;15.07;;;8.47;;
19221;SDS011;9745;50.828;4.378;2023-02-13T17:10:04;13.23;;;8.03;;
19221;SDS011;9745;50.828;4.378;2023-02-13T17:12:31;12.83;;;8.10;;
19221;SDS011;9745;50.828;4.378;2023-02-13T17:14:58;15.77;;;8.80;;
19221;SDS011;9745;50.828;4.378;2023-02-13T17:17:28;15.17;;;8.83;;
19221;SDS011;9745;50.828;4.378;2023-02-13T17:19:54;15.17;;;8.43;;
19221;SDS011;9745;50.828;4.378;2023-02-13T17:24:46;13.10;;;8.67;;
19221;SDS011;9745;50.828;4.378;2023-02-13T17:27:12;17.50;;;11.57;;
19221;SDS011;9745;50.828;4.378;2023-02-13T17:29:38;18.53;;;11.03;;